Airfield :
LOGIN :

Register | Disclaimer

   EN    FR    IT 

 










Legend :    VFR   Marginal VFR   IFR   Intensive IFR   Very Intensive IFR
Visi :
Ceiling :
>= 8 km
>= 3000ft
5 to 8 km
1000 to 3000 ft
1500m to 5 km
500 to 1000 ft
800 to 1500m
200 to 500 ft
< 800m
< 200 ft
Symbols :   Thunderstorms  Fog  Heavy snow  Heavy precipitations  Wind > 20 kt
SIGMETs :     Misc.  Thunderstorms  Icing  Turbulence  Mountain Waves  Volcanic Ashes







- Airport Elevation : 433 ft
- Download approach charts


LFOC - Chateaudun

CURRENT METAR :
  • 240000Z AUTO 20012KT 9999 FEW041/// SCT050/// BKN070/// ///TCU 13/11 Q1009

EXPIRED METARs :
  • 232330Z AUTO 21017KT 9999 -RA ///TCU 13/12 Q1009
  • 232300Z AUTO 20016KT CAVOK 13/12 Q1009
  • 232230Z AUTO 19011KT 9999 SCT014 BKN086 BKN100 13/11 Q1010
  • 232200Z AUTO 20011KT 9999 BKN014 BKN084 OVC100 13/12 Q1010
  • 232130Z AUTO 21010KT 9999 FEW010 BKN014 BKN025 13/12 Q1010

TAF TAF LFOC
Valid from the 23 at 15:00 until the 24 at 15:00 UTC


231400Z 2315/2415 21015KT 9999 BKN025 BKN040
PROB30
TEMPO 2315/2317 21020G30KT
TEMPO 2317/2319 27015KT
BECMG 2319/2321 BKN015
BECMG 2323/2401 20020G30KT 4000 -RA BKN013
TEMPO 2404/2412 3000 RADZ OVC008
No reported NOTAMs for that airfield.



MET'MAP, your aeronautical weather chart ! - Copyright ORBIFLY December 2007 - Disclaimer

ORBIFLY MET'MAP TEAM :

Programming & Development : Alexandra Zaïnal
Concept & Development : Baudouin d'Aumeries
Co-Development & Prog : Marc-Olivier Méhu
Technical & hardware support : Manuel Goepfert

Contact : metmap@orbifly.com




SOURCES & CREDITS :

   NOAA